sensor_id;sensor_type;location;lat;lon;timestamp;temperature;humidity
61117;DHT22;47002;50.856;6.580;2022-12-11T00:02:16;-1.90;93.70
61117;DHT22;47002;50.856;6.580;2022-12-11T00:04:42;-1.90;93.70
61117;DHT22;47002;50.856;6.580;2022-12-11T00:07:08;-1.80;93.70
61117;DHT22;47002;50.856;6.580;2022-12-11T00:09:35;-1.80;93.70
61117;DHT22;47002;50.856;6.580;2022-12-11T00:12:01;-1.80;93.60
61117;DHT22;47002;50.856;6.580;2022-12-11T00:14:27;-1.80;93.70
61117;DHT22;47002;50.856;6.580;2022-12-11T00:16:53;-1.80;93.60
61117;DHT22;47002;50.856;6.580;2022-12-11T00:19:18;-1.80;93.50
61117;DHT22;47002;50.856;6.580;2022-12-11T00:21:44;-1.80;93.50
61117;DHT22;47002;50.856;6.580;2022-12-11T00:24:10;-1.80;93.50
61117;DHT22;47002;50.856;6.580;2022-12-11T00:26:37;-1.80;93.40
61117;DHT22;47002;50.856;6.580;2022-12-11T00:29:03;-1.80;93.40
61117;DHT22;47002;50.856;6.580;2022-12-11T00:31:29;-1.80;93.50
61117;DHT22;47002;50.856;6.580;2022-12-11T00:33:54;-1.80;93.40
61117;DHT22;47002;50.856;6.580;2022-12-11T00:36:22;-1.80;93.40
61117;DHT22;47002;50.856;6.580;2022-12-11T00:38:48;-1.80;93.40
61117;DHT22;47002;50.856;6.580;2022-12-11T00:41:14;-1.80;93.50
61117;DHT22;47002;50.856;6.580;2022-12-11T00:43:41;-1.80;93.40
61117;DHT22;47002;50.856;6.580;2022-12-11T00:46:07;-1.70;93.40
61117;DHT22;47002;50.856;6.580;2022-12-11T00:48:33;-1.70;93.50
61117;DHT22;47002;50.856;6.580;2022-12-11T00:50:59;-1.70;93.40
61117;DHT22;47002;50.856;6.580;2022-12-11T00:53:25;-1.70;93.50
61117;DHT22;47002;50.856;6.580;2022-12-11T00:55:51;-1.70;93.40
61117;DHT22;47002;50.856;6.580;2022-12-11T00:58:17;-1.80;93.40
61117;DHT22;47002;50.856;6.580;2022-12-11T01:00:44;-1.80;93.40
61117;DHT22;47002;50.856;6.580;2022-12-11T01:03:10;-1.80;93.40
61117;DHT22;47002;50.856;6.580;2022-12-11T01:05:38;-1.80;93.40
61117;DHT22;47002;50.856;6.580;2022-12-11T01:08:04;-1.80;93.40
61117;DHT22;47002;50.856;6.580;2022-12-11T01:10:30;-1.80;93.50
61117;DHT22;47002;50.856;6.580;2022-12-11T01:12:57;-1.90;93.50
61117;DHT22;47002;50.856;6.580;2022-12-11T01:15:26;-1.80;93.60
61117;DHT22;47002;50.856;6.580;2022-12-11T01:17:53;-1.90;93.70
61117;DHT22;47002;50.856;6.580;2022-12-11T01:20:20;-1.80;93.70
61117;DHT22;47002;50.856;6.580;2022-12-11T01:22:46;-1.80;93.70
61117;DHT22;47002;50.856;6.580;2022-12-11T01:25:12;-1.90;93.80
61117;DHT22;47002;50.856;6.580;2022-12-11T01:27:38;-1.90;93.80
61117;DHT22;47002;50.856;6.580;2022-12-11T01:30:05;-1.80;93.80
61117;DHT22;47002;50.856;6.580;2022-12-11T01:32:32;-1.90;93.80
61117;DHT22;47002;50.856;6.580;2022-12-11T01:34:59;-1.90;93.80
61117;DHT22;47002;50.856;6.580;2022-12-11T01:37:25;-1.90;93.80
61117;DHT22;47002;50.856;6.580;2022-12-11T01:39:51;-1.90;93.90
61117;DHT22;47002;50.856;6.580;2022-12-11T01:42:18;-1.90;93.90
61117;DHT22;47002;50.856;6.580;2022-12-11T01:45:15;-1.90;94.00
61117;DHT22;47002;50.856;6.580;2022-12-11T01:47:47;-1.90;93.90
61117;DHT22;47002;50.856;6.580;2022-12-11T01:50:14;-1.90;93.90
61117;DHT22;47002;50.856;6.580;2022-12-11T01:52:40;-1.90;93.90
61117;DHT22;47002;50.856;6.580;2022-12-11T01:55:08;-1.90;93.90
61117;DHT22;47002;50.856;6.580;2022-12-11T01:57:35;-1.90;93.90
61117;DHT22;47002;50.856;6.580;2022-12-11T02:00:00;-1.90;93.80
61117;DHT22;47002;50.856;6.580;2022-12-11T02:02:28;-1.90;93.80
61117;DHT22;47002;50.856;6.580;2022-12-11T02:04:54;-1.90;93.80
61117;DHT22;47002;50.856;6.580;2022-12-11T02:07:21;-1.90;93.70
61117;DHT22;47002;50.856;6.580;2022-12-11T02:09:47;-1.90;93.70
61117;DHT22;47002;50.856;6.580;2022-12-11T02:12:19;-1.90;93.80
61117;DHT22;47002;50.856;6.580;2022-12-11T02:14:52;-1.90;93.80
61117;DHT22;47002;50.856;6.580;2022-12-11T02:17:24;-1.90;93.80
61117;DHT22;47002;50.856;6.580;2022-12-11T02:20:00;-1.80;93.80
61117;DHT22;47002;50.856;6.580;2022-12-11T02:22:52;-1.80;93.80
61117;DHT22;47002;50.856;6.580;2022-12-11T02:25:25;-1.90;93.80
61117;DHT22;47002;50.856;6.580;2022-12-11T02:28:07;-1.80;93.80
61117;DHT22;47002;50.856;6.580;2022-12-11T02:30:36;-1.80;93.90
61117;DHT22;47002;50.856;6.580;2022-12-11T02:33:04;-1.80;93.90
61117;DHT22;47002;50.856;6.580;2022-12-11T02:35:33;-1.80;93.80
61117;DHT22;47002;50.856;6.580;2022-12-11T02:38:05;-1.80;93.80
61117;DHT22;47002;50.856;6.580;2022-12-11T02:40:34;-1.90;93.80
61117;DHT22;47002;50.856;6.580;2022-12-11T02:43:05;-1.90;93.80
61117;DHT22;47002;50.856;6.580;2022-12-11T02:45:33;-1.80;93.80
61117;DHT22;47002;50.856;6.580;2022-12-11T02:48:02;-1.80;93.80
61117;DHT22;47002;50.856;6.580;2022-12-11T02:50:29;-1.90;93.70
61117;DHT22;47002;50.856;6.580;2022-12-11T02:52:56;-1.90;93.70
61117;DHT22;47002;50.856;6.580;2022-12-11T02:55:25;-1.80;93.60
61117;DHT22;47002;50.856;6.580;2022-12-11T02:57:59;-1.80;93.60
61117;DHT22;47002;50.856;6.580;2022-12-11T03:00:27;-1.80;93.60
61117;DHT22;47002;50.856;6.580;2022-12-11T03:02:53;-1.80;93.60
61117;DHT22;47002;50.856;6.580;2022-12-11T03:05:19;-1.80;93.60
61117;DHT22;47002;50.856;6.580;2022-12-11T03:07:44;-1.80;93.60
61117;DHT22;47002;50.856;6.580;2022-12-11T03:10:13;-1.80;93.60
61117;DHT22;47002;50.856;6.580;2022-12-11T03:12:41;-1.80;93.50
61117;DHT22;47002;50.856;6.580;2022-12-11T03:15:10;-1.80;93.60
61117;DHT22;47002;50.856;6.580;2022-12-11T03:17:44;-1.80;93.60
61117;DHT22;47002;50.856;6.580;2022-12-11T03:20:17;-1.80;93.60
61117;DHT22;47002;50.856;6.580;2022-12-11T03:22:45;-1.80;93.60
61117;DHT22;47002;50.856;6.580;2022-12-11T03:25:14;-1.80;93.60
61117;DHT22;47002;50.856;6.580;2022-12-11T03:27:45;-1.80;93.50
61117;DHT22;47002;50.856;6.580;2022-12-11T03:30:15;-1.80;93.50
61117;DHT22;47002;50.856;6.580;2022-12-11T03:32:47;-1.80;93.50
61117;DHT22;47002;50.856;6.580;2022-12-11T03:35:17;-1.80;93.50
61117;DHT22;47002;50.856;6.580;2022-12-11T03:37:43;-1.80;93.50
61117;DHT22;47002;50.856;6.580;2022-12-11T03:40:14;-1.70;93.60
61117;DHT22;47002;50.856;6.580;2022-12-11T03:42:41;-1.80;93.50
61117;DHT22;47002;50.856;6.580;2022-12-11T03:45:08;-1.70;93.50
61117;DHT22;47002;50.856;6.580;2022-12-11T03:47:36;-1.80;93.50
61117;DHT22;47002;50.856;6.580;2022-12-11T03:50:05;-1.80;93.60
61117;DHT22;47002;50.856;6.580;2022-12-11T03:52:32;-1.80;93.50
61117;DHT22;47002;50.856;6.580;2022-12-11T03:55:02;-1.70;93.60
61117;DHT22;47002;50.856;6.580;2022-12-11T03:57:32;-1.70;93.60
61117;DHT22;47002;50.856;6.580;2022-12-11T03:59:59;-1.70;93.50
61117;DHT22;47002;50.856;6.580;2022-12-11T04:02:25;-1.70;93.50
61117;DHT22;47002;50.856;6.580;2022-12-11T04:04:51;-1.70;93.60
61117;DHT22;47002;50.856;6.580;2022-12-11T04:07:18;-1.70;93.50
61117;DHT22;47002;50.856;6.580;2022-12-11T04:09:44;-1.70;93.50
61117;DHT22;47002;50.856;6.580;2022-12-11T04:12:09;-1.70;93.40
61117;DHT22;47002;50.856;6.580;2022-12-11T04:14:35;-1.70;93.40
61117;DHT22;47002;50.856;6.580;2022-12-11T04:17:01;-1.70;93.40
61117;DHT22;47002;50.856;6.580;2022-12-11T04:19:26;-1.70;93.30
61117;DHT22;47002;50.856;6.580;2022-12-11T04:21:52;-1.70;93.30
61117;DHT22;47002;50.856;6.580;2022-12-11T04:24:19;-1.70;93.30
61117;DHT22;47002;50.856;6.580;2022-12-11T04:26:46;-1.70;93.20
61117;DHT22;47002;50.856;6.580;2022-12-11T04:29:12;-1.70;93.10
61117;DHT22;47002;50.856;6.580;2022-12-11T04:31:37;-1.70;93.10
61117;DHT22;47002;50.856;6.580;2022-12-11T04:34:03;-1.70;93.00
61117;DHT22;47002;50.856;6.580;2022-12-11T04:36:29;-1.70;92.90
61117;DHT22;47002;50.856;6.580;2022-12-11T04:38:55;-1.70;92.70
61117;DHT22;47002;50.856;6.580;2022-12-11T04:41:22;-1.70;92.70
61117;DHT22;47002;50.856;6.580;2022-12-11T04:43:47;-1.70;92.60
61117;DHT22;47002;50.856;6.580;2022-12-11T04:46:15;-1.70;92.50
61117;DHT22;47002;50.856;6.580;2022-12-11T04:48:41;-1.70;92.60
61117;DHT22;47002;50.856;6.580;2022-12-11T04:51:08;-1.70;92.60
61117;DHT22;47002;50.856;6.580;2022-12-11T04:53:34;-1.70;92.50
61117;DHT22;47002;50.856;6.580;2022-12-11T04:56:00;-1.70;92.40
61117;DHT22;47002;50.856;6.580;2022-12-11T04:58:27;-1.70;92.40
61117;DHT22;47002;50.856;6.580;2022-12-11T05:00:53;-1.70;92.50
61117;DHT22;47002;50.856;6.580;2022-12-11T05:03:19;-1.70;92.50
61117;DHT22;47002;50.856;6.580;2022-12-11T05:05:47;-1.70;92.50
61117;DHT22;47002;50.856;6.580;2022-12-11T05:08:12;-1.70;92.50
61117;DHT22;47002;50.856;6.580;2022-12-11T05:10:38;-1.70;92.40
61117;DHT22;47002;50.856;6.580;2022-12-11T05:13:04;-1.70;92.40
61117;DHT22;47002;50.856;6.580;2022-12-11T05:15:31;-1.70;92.40
61117;DHT22;47002;50.856;6.580;2022-12-11T05:17:56;-1.70;92.40
61117;DHT22;47002;50.856;6.580;2022-12-11T05:20:22;-1.70;92.40
61117;DHT22;47002;50.856;6.580;2022-12-11T05:22:48;-1.70;92.30
61117;DHT22;47002;50.856;6.580;2022-12-11T05:25:13;-1.70;92.30
61117;DHT22;47002;50.856;6.580;2022-12-11T05:27:39;-1.70;92.30
61117;DHT22;47002;50.856;6.580;2022-12-11T05:30:06;-1.70;92.30
61117;DHT22;47002;50.856;6.580;2022-12-11T05:32:33;-1.70;92.20
61117;DHT22;47002;50.856;6.580;2022-12-11T05:34:59;-1.70;92.30
61117;DHT22;47002;50.856;6.580;2022-12-11T05:37:24;-1.70;92.30
61117;DHT22;47002;50.856;6.580;2022-12-11T05:39:50;-1.70;92.30
61117;DHT22;47002;50.856;6.580;2022-12-11T05:42:16;-1.70;92.20
61117;DHT22;47002;50.856;6.580;2022-12-11T05:44:41;-1.70;92.20
61117;DHT22;47002;50.856;6.580;2022-12-11T05:47:07;-1.70;92.20
61117;DHT22;47002;50.856;6.580;2022-12-11T05:49:34;-1.70;92.30
61117;DHT22;47002;50.856;6.580;2022-12-11T05:52:00;-1.60;92.30
61117;DHT22;47002;50.856;6.580;2022-12-11T05:54:25;-1.60;92.40
61117;DHT22;47002;50.856;6.580;2022-12-11T05:56:51;-1.60;92.50
61117;DHT22;47002;50.856;6.580;2022-12-11T05:59:17;-1.60;92.60
61117;DHT22;47002;50.856;6.580;2022-12-11T06:01:42;-1.60;92.60
61117;DHT22;47002;50.856;6.580;2022-12-11T06:04:09;-1.60;92.60
61117;DHT22;47002;50.856;6.580;2022-12-11T06:06:38;-1.60;92.60
61117;DHT22;47002;50.856;6.580;2022-12-11T06:09:05;-1.60;92.70
61117;DHT22;47002;50.856;6.580;2022-12-11T06:11:32;-1.60;92.80
61117;DHT22;47002;50.856;6.580;2022-12-11T06:13:59;-1.60;92.80
61117;DHT22;47002;50.856;6.580;2022-12-11T06:16:25;-1.60;92.80
61117;DHT22;47002;50.856;6.580;2022-12-11T06:18:51;-1.60;92.70
61117;DHT22;47002;50.856;6.580;2022-12-11T06:21:18;-1.60;92.70
61117;DHT22;47002;50.856;6.580;2022-12-11T06:23:47;-1.60;92.70
61117;DHT22;47002;50.856;6.580;2022-12-11T06:26:13;-1.70;92.80
61117;DHT22;47002;50.856;6.580;2022-12-11T06:28:39;-1.60;92.90
61117;DHT22;47002;50.856;6.580;2022-12-11T06:31:05;-1.60;93.00
61117;DHT22;47002;50.856;6.580;2022-12-11T06:33:31;-1.60;93.10
61117;DHT22;47002;50.856;6.580;2022-12-11T06:36:00;-1.60;93.10
61117;DHT22;47002;50.856;6.580;2022-12-11T06:38:26;-1.50;93.20
61117;DHT22;47002;50.856;6.580;2022-12-11T06:40:55;-1.50;93.20
61117;DHT22;47002;50.856;6.580;2022-12-11T06:43:21;-1.50;93.10
61117;DHT22;47002;50.856;6.580;2022-12-11T06:45:46;-1.50;93.10
61117;DHT22;47002;50.856;6.580;2022-12-11T06:48:12;-1.50;93.10
61117;DHT22;47002;50.856;6.580;2022-12-11T06:50:37;-1.50;93.10
61117;DHT22;47002;50.856;6.580;2022-12-11T06:53:03;-1.50;93.10
61117;DHT22;47002;50.856;6.580;2022-12-11T06:55:29;-1.50;93.00
61117;DHT22;47002;50.856;6.580;2022-12-11T06:57:56;-1.50;93.00
61117;DHT22;47002;50.856;6.580;2022-12-11T07:00:22;-1.40;93.00
61117;DHT22;47002;50.856;6.580;2022-12-11T07:02:49;-1.50;93.00
61117;DHT22;47002;50.856;6.580;2022-12-11T07:05:15;-1.50;93.00
61117;DHT22;47002;50.856;6.580;2022-12-11T07:07:40;-1.50;93.00
61117;DHT22;47002;50.856;6.580;2022-12-11T07:10:07;-1.50;92.90
61117;DHT22;47002;50.856;6.580;2022-12-11T07:12:33;-1.50;93.00
61117;DHT22;47002;50.856;6.580;2022-12-11T07:15:00;-1.50;92.70
61117;DHT22;47002;50.856;6.580;2022-12-11T07:17:27;-1.60;92.40
61117;DHT22;47002;50.856;6.580;2022-12-11T07:19:53;-1.60;92.40
61117;DHT22;47002;50.856;6.580;2022-12-11T07:22:19;-1.60;92.50
61117;DHT22;47002;50.856;6.580;2022-12-11T07:24:45;-1.60;92.50
61117;DHT22;47002;50.856;6.580;2022-12-11T07:27:10;-1.60;92.60
61117;DHT22;47002;50.856;6.580;2022-12-11T07:29:36;-1.60;92.60
61117;DHT22;47002;50.856;6.580;2022-12-11T07:32:04;-1.60;92.70
61117;DHT22;47002;50.856;6.580;2022-12-11T07:34:29;-1.70;92.70
61117;DHT22;47002;50.856;6.580;2022-12-11T07:36:55;-1.60;92.80
61117;DHT22;47002;50.856;6.580;2022-12-11T07:39:21;-1.60;92.80
61117;DHT22;47002;50.856;6.580;2022-12-11T07:41:46;-1.60;92.70
61117;DHT22;47002;50.856;6.580;2022-12-11T07:44:12;-1.60;92.70
61117;DHT22;47002;50.856;6.580;2022-12-11T07:46:38;-1.60;92.70
61117;DHT22;47002;50.856;6.580;2022-12-11T07:49:06;-1.60;92.70
61117;DHT22;47002;50.856;6.580;2022-12-11T07:51:33;-1.60;92.50
61117;DHT22;47002;50.856;6.580;2022-12-11T07:54:01;-1.60;92.20
61117;DHT22;47002;50.856;6.580;2022-12-11T07:56:28;-1.60;92.00
61117;DHT22;47002;50.856;6.580;2022-12-11T07:58:54;-1.60;92.00
61117;DHT22;47002;50.856;6.580;2022-12-11T08:01:20;-1.60;92.10
61117;DHT22;47002;50.856;6.580;2022-12-11T08:03:47;-1.60;92.10
61117;DHT22;47002;50.856;6.580;2022-12-11T08:06:14;-1.60;92.10
61117;DHT22;47002;50.856;6.580;2022-12-11T08:08:40;-1.60;92.00
61117;DHT22;47002;50.856;6.580;2022-12-11T08:11:07;-1.60;92.00
61117;DHT22;47002;50.856;6.580;2022-12-11T08:13:33;-1.50;92.10
61117;DHT22;47002;50.856;6.580;2022-12-11T08:16:02;-1.40;92.10
61117;DHT22;47002;50.856;6.580;2022-12-11T08:18:28;-1.40;92.10
61117;DHT22;47002;50.856;6.580;2022-12-11T08:20:54;-1.30;92.00
61117;DHT22;47002;50.856;6.580;2022-12-11T08:23:21;-1.40;91.70
61117;DHT22;47002;50.856;6.580;2022-12-11T08:25:46;-1.40;91.50
61117;DHT22;47002;50.856;6.580;2022-12-11T08:28:12;-1.40;91.50
61117;DHT22;47002;50.856;6.580;2022-12-11T08:30:38;-1.40;91.50
61117;DHT22;47002;50.856;6.580;2022-12-11T08:33:04;-1.40;91.50
61117;DHT22;47002;50.856;6.580;2022-12-11T08:35:30;-1.40;91.50
61117;DHT22;47002;50.856;6.580;2022-12-11T08:37:55;-1.40;91.60
61117;DHT22;47002;50.856;6.580;2022-12-11T08:40:22;-1.30;91.60
61117;DHT22;47002;50.856;6.580;2022-12-11T08:42:48;-1.30;91.60
61117;DHT22;47002;50.856;6.580;2022-12-11T08:45:14;-1.20;91.60
61117;DHT22;47002;50.856;6.580;2022-12-11T08:47:40;-1.20;91.60
61117;DHT22;47002;50.856;6.580;2022-12-11T08:50:05;-1.10;91.40
61117;DHT22;47002;50.856;6.580;2022-12-11T08:52:33;-1.10;91.20
61117;DHT22;47002;50.856;6.580;2022-12-11T08:54:59;-1.10;91.20
61117;DHT22;47002;50.856;6.580;2022-12-11T08:57:26;-1.00;91.00
61117;DHT22;47002;50.856;6.580;2022-12-11T08:59:52;-0.90;90.90
61117;DHT22;47002;50.856;6.580;2022-12-11T09:02:18;-0.90;90.80
61117;DHT22;47002;50.856;6.580;2022-12-11T09:04:43;-0.80;90.60
61117;DHT22;47002;50.856;6.580;2022-12-11T09:07:09;-0.70;90.40
61117;DHT22;47002;50.856;6.580;2022-12-11T09:09:35;-0.70;90.30
61117;DHT22;47002;50.856;6.580;2022-12-11T09:12:00;-0.60;90.20
61117;DHT22;47002;50.856;6.580;2022-12-11T09:14:28;-0.60;89.80
61117;DHT22;47002;50.856;6.580;2022-12-11T09:16:53;-0.60;89.40
61117;DHT22;47002;50.856;6.580;2022-12-11T09:19:19;-0.60;89.20
61117;DHT22;47002;50.856;6.580;2022-12-11T09:21:44;-0.70;88.80
61117;DHT22;47002;50.856;6.580;2022-12-11T09:24:11;-0.80;88.70
61117;DHT22;47002;50.856;6.580;2022-12-11T09:26:37;-0.80;88.80
61117;DHT22;47002;50.856;6.580;2022-12-11T09:29:04;-0.80;89.10
61117;DHT22;47002;50.856;6.580;2022-12-11T09:31:32;-0.70;89.20
61117;DHT22;47002;50.856;6.580;2022-12-11T09:34:01;-0.70;89.20
61117;DHT22;47002;50.856;6.580;2022-12-11T09:36:27;-0.70;89.30
61117;DHT22;47002;50.856;6.580;2022-12-11T09:38:53;-0.60;89.30
61117;DHT22;47002;50.856;6.580;2022-12-11T09:41:47;-0.50;89.10
61117;DHT22;47002;50.856;6.580;2022-12-11T09:44:30;-0.50;89.10
61117;DHT22;47002;50.856;6.580;2022-12-11T09:46:58;-0.40;88.70
61117;DHT22;47002;50.856;6.580;2022-12-11T09:49:42;-0.40;88.60
61117;DHT22;47002;50.856;6.580;2022-12-11T09:52:13;-0.30;88.60
61117;DHT22;47002;50.856;6.580;2022-12-11T09:54:43;-0.20;88.40
61117;DHT22;47002;50.856;6.580;2022-12-11T09:57:18;-0.20;88.20
61117;DHT22;47002;50.856;6.580;2022-12-11T09:59:55;-0.10;87.80
61117;DHT22;47002;50.856;6.580;2022-12-11T10:02:32;-0.10;87.70
61117;DHT22;47002;50.856;6.580;2022-12-11T10:05:11;0.00;87.90
61117;DHT22;47002;50.856;6.580;2022-12-11T10:07:43;0.10;87.80
61117;DHT22;47002;50.856;6.580;2022-12-11T10:10:16;0.10;87.70
61117;DHT22;47002;50.856;6.580;2022-12-11T10:12:50;0.20;87.70
61117;DHT22;47002;50.856;6.580;2022-12-11T10:15:33;0.30;87.30
61117;DHT22;47002;50.856;6.580;2022-12-11T10:18:03;0.30;87.20
61117;DHT22;47002;50.856;6.580;2022-12-11T10:20:34;0.30;86.70
61117;DHT22;47002;50.856;6.580;2022-12-11T10:23:00;0.30;86.80
61117;DHT22;47002;50.856;6.580;2022-12-11T10:25:28;0.20;86.60
61117;DHT22;47002;50.856;6.580;2022-12-11T10:27:55;0.20;86.40
61117;DHT22;47002;50.856;6.580;2022-12-11T10:30:22;0.20;86.50
61117;DHT22;47002;50.856;6.580;2022-12-11T10:32:55;0.20;86.30
61117;DHT22;47002;50.856;6.580;2022-12-11T10:35:31;0.20;85.90
61117;DHT22;47002;50.856;6.580;2022-12-11T10:38:09;0.10;86.00
61117;DHT22;47002;50.856;6.580;2022-12-11T10:40:37;0.10;86.20
61117;DHT22;47002;50.856;6.580;2022-12-11T10:43:04;0.20;86.50
61117;DHT22;47002;50.856;6.580;2022-12-11T10:45:30;0.20;85.90
61117;DHT22;47002;50.856;6.580;2022-12-11T10:48:03;0.30;86.50
61117;DHT22;47002;50.856;6.580;2022-12-11T10:50:30;0.40;86.80
61117;DHT22;47002;50.856;6.580;2022-12-11T10:52:56;0.50;86.00
61117;DHT22;47002;50.856;6.580;2022-12-11T10:55:27;0.60;85.60
61117;DHT22;47002;50.856;6.580;2022-12-11T10:57:56;0.60;85.10
61117;DHT22;47002;50.856;6.580;2022-12-11T11:00:30;0.50;84.40
61117;DHT22;47002;50.856;6.580;2022-12-11T11:02:57;0.40;84.20
61117;DHT22;47002;50.856;6.580;2022-12-11T11:05:27;0.30;84.60
61117;DHT22;47002;50.856;6.580;2022-12-11T11:08:12;0.30;84.90
61117;DHT22;47002;50.856;6.580;2022-12-11T11:10:49;0.30;84.80
61117;DHT22;47002;50.856;6.580;2022-12-11T11:13:15;0.40;84.80
61117;DHT22;47002;50.856;6.580;2022-12-11T11:15:41;0.30;84.40
61117;DHT22;47002;50.856;6.580;2022-12-11T11:18:11;0.20;84.40
61117;DHT22;47002;50.856;6.580;2022-12-11T11:20:44;0.10;84.50
61117;DHT22;47002;50.856;6.580;2022-12-11T11:23:14;0.10;84.90
61117;DHT22;47002;50.856;6.580;2022-12-11T11:25:48;0.10;85.10
61117;DHT22;47002;50.856;6.580;2022-12-11T11:28:17;0.20;84.80
61117;DHT22;47002;50.856;6.580;2022-12-11T11:30:55;0.30;84.60
61117;DHT22;47002;50.856;6.580;2022-12-11T11:33:21;0.40;84.00
61117;DHT22;47002;50.856;6.580;2022-12-11T11:35:51;0.50;84.10
61117;DHT22;47002;50.856;6.580;2022-12-11T11:38:21;0.60;84.00
61117;DHT22;47002;50.856;6.580;2022-12-11T11:40:51;0.70;84.10
61117;DHT22;47002;50.856;6.580;2022-12-11T11:43:24;0.90;84.00
61117;DHT22;47002;50.856;6.580;2022-12-11T11:45:55;1.10;84.20
61117;DHT22;47002;50.856;6.580;2022-12-11T11:48:35;1.20;83.60
61117;DHT22;47002;50.856;6.580;2022-12-11T11:51:11;1.40;83.10
61117;DHT22;47002;50.856;6.580;2022-12-11T11:53:40;1.60;82.60
61117;DHT22;47002;50.856;6.580;2022-12-11T11:56:19;1.70;82.00
61117;DHT22;47002;50.856;6.580;2022-12-11T11:58:51;1.70;81.30
61117;DHT22;47002;50.856;6.580;2022-12-11T12:01:19;1.70;81.20
61117;DHT22;47002;50.856;6.580;2022-12-11T12:03:46;1.70;81.50
61117;DHT22;47002;50.856;6.580;2022-12-11T12:06:16;1.90;81.70
61117;DHT22;47002;50.856;6.580;2022-12-11T12:08:56;2.00;81.40
61117;DHT22;47002;50.856;6.580;2022-12-11T12:11:32;2.10;80.40
61117;DHT22;47002;50.856;6.580;2022-12-11T12:14:08;2.10;80.00
61117;DHT22;47002;50.856;6.580;2022-12-11T12:16:41;2.00;79.50
61117;DHT22;47002;50.856;6.580;2022-12-11T12:19:20;2.00;81.00
61117;DHT22;47002;50.856;6.580;2022-12-11T12:21:50;1.90;80.40
61117;DHT22;47002;50.856;6.580;2022-12-11T12:24:27;1.80;80.30
61117;DHT22;47002;50.856;6.580;2022-12-11T12:26:59;1.80;80.30
61117;DHT22;47002;50.856;6.580;2022-12-11T12:29:33;1.80;80.30
61117;DHT22;47002;50.856;6.580;2022-12-11T12:32:10;1.80;79.60
61117;DHT22;47002;50.856;6.580;2022-12-11T12:34:51;1.80;79.70
61117;DHT22;47002;50.856;6.580;2022-12-11T12:37:26;1.80;80.00
61117;DHT22;47002;50.856;6.580;2022-12-11T12:40:09;1.90;80.10
61117;DHT22;47002;50.856;6.580;2022-12-11T12:42:42;2.00;79.50
61117;DHT22;47002;50.856;6.580;2022-12-11T12:45:17;1.90;79.20
61117;DHT22;47002;50.856;6.580;2022-12-11T12:47:48;1.80;79.00
61117;DHT22;47002;50.856;6.580;2022-12-11T12:50:17;1.80;80.00
61117;DHT22;47002;50.856;6.580;2022-12-11T12:52:44;1.80;80.30
61117;DHT22;47002;50.856;6.580;2022-12-11T12:55:19;1.90;79.90
61117;DHT22;47002;50.856;6.580;2022-12-11T12:57:48;1.80;79.60
61117;DHT22;47002;50.856;6.580;2022-12-11T13:00:29;1.70;80.10
61117;DHT22;47002;50.856;6.580;2022-12-11T13:02:56;1.70;80.30
61117;DHT22;47002;50.856;6.580;2022-12-11T13:05:24;1.70;80.40
61117;DHT22;47002;50.856;6.580;2022-12-11T13:07:52;1.70;80.00
61117;DHT22;47002;50.856;6.580;2022-12-11T13:10:27;1.70;80.00
61117;DHT22;47002;50.856;6.580;2022-12-11T13:12:54;1.80;79.60
61117;DHT22;47002;50.856;6.580;2022-12-11T13:15:25;1.90;79.70
61117;DHT22;47002;50.856;6.580;2022-12-11T13:17:52;2.00;79.60
61117;DHT22;47002;50.856;6.580;2022-12-11T13:20:19;2.10;79.50
61117;DHT22;47002;50.856;6.580;2022-12-11T13:22:54;2.10;79.30
61117;DHT22;47002;50.856;6.580;2022-12-11T13:25:26;2.20;78.80
61117;DHT22;47002;50.856;6.580;2022-12-11T13:27:52;2.10;78.80
61117;DHT22;47002;50.856;6.580;2022-12-11T13:30:28;2.10;78.70
61117;DHT22;47002;50.856;6.580;2022-12-11T13:33:03;2.10;78.80
61117;DHT22;47002;50.856;6.580;2022-12-11T13:35:30;2.10;79.00
61117;DHT22;47002;50.856;6.580;2022-12-11T13:38:02;2.00;79.10
61117;DHT22;47002;50.856;6.580;2022-12-11T13:40:38;2.00;78.80
61117;DHT22;47002;50.856;6.580;2022-12-11T13:43:08;2.00;78.60
61117;DHT22;47002;50.856;6.580;2022-12-11T13:45:45;2.00;78.50
61117;DHT22;47002;50.856;6.580;2022-12-11T13:48:18;2.00;78.50
61117;DHT22;47002;50.856;6.580;2022-12-11T13:50:44;2.10;77.60
61117;DHT22;47002;50.856;6.580;2022-12-11T13:53:15;2.00;77.10
61117;DHT22;47002;50.856;6.580;2022-12-11T13:55:43;1.90;77.40
61117;DHT22;47002;50.856;6.580;2022-12-11T13:58:15;1.90;77.70
61117;DHT22;47002;50.856;6.580;2022-12-11T14:00:41;1.70;77.50
61117;DHT22;47002;50.856;6.580;2022-12-11T14:03:06;1.50;77.80
61117;DHT22;47002;50.856;6.580;2022-12-11T14:05:32;1.50;78.30
61117;DHT22;47002;50.856;6.580;2022-12-11T14:08:01;1.40;78.60
61117;DHT22;47002;50.856;6.580;2022-12-11T14:10:31;1.30;79.50
61117;DHT22;47002;50.856;6.580;2022-12-11T14:13:00;1.30;80.00
61117;DHT22;47002;50.856;6.580;2022-12-11T14:15:27;1.30;80.40
61117;DHT22;47002;50.856;6.580;2022-12-11T14:17:54;1.20;80.70
61117;DHT22;47002;50.856;6.580;2022-12-11T14:20:24;1.10;80.90
61117;DHT22;47002;50.856;6.580;2022-12-11T14:22:50;1.10;81.10
61117;DHT22;47002;50.856;6.580;2022-12-11T14:25:19;1.00;81.20
61117;DHT22;47002;50.856;6.580;2022-12-11T14:27:47;1.00;81.30
61117;DHT22;47002;50.856;6.580;2022-12-11T14:30:22;1.00;81.60
61117;DHT22;47002;50.856;6.580;2022-12-11T14:32:48;1.00;82.00
61117;DHT22;47002;50.856;6.580;2022-12-11T14:35:21;0.90;82.10
61117;DHT22;47002;50.856;6.580;2022-12-11T14:37:47;0.90;82.10
61117;DHT22;47002;50.856;6.580;2022-12-11T14:40:17;0.80;82.20
61117;DHT22;47002;50.856;6.580;2022-12-11T14:42:47;0.70;82.40
61117;DHT22;47002;50.856;6.580;2022-12-11T14:45:19;0.70;82.70
61117;DHT22;47002;50.856;6.580;2022-12-11T14:47:48;0.70;82.70
61117;DHT22;47002;50.856;6.580;2022-12-11T14:50:18;0.70;82.70
61117;DHT22;47002;50.856;6.580;2022-12-11T14:52:50;0.80;82.60
61117;DHT22;47002;50.856;6.580;2022-12-11T14:55:19;0.80;82.50
61117;DHT22;47002;50.856;6.580;2022-12-11T14:57:48;0.70;82.30
61117;DHT22;47002;50.856;6.580;2022-12-11T15:00:23;0.70;82.50
61117;DHT22;47002;50.856;6.580;2022-12-11T15:03:02;0.60;83.10
61117;DHT22;47002;50.856;6.580;2022-12-11T15:05:28;0.70;83.20
61117;DHT22;47002;50.856;6.580;2022-12-11T15:07:57;0.60;83.00
61117;DHT22;47002;50.856;6.580;2022-12-11T15:10:27;0.50;82.60
61117;DHT22;47002;50.856;6.580;2022-12-11T15:12:53;0.40;83.00
61117;DHT22;47002;50.856;6.580;2022-12-11T15:15:19;0.30;83.40
61117;DHT22;47002;50.856;6.580;2022-12-11T15:17:48;0.30;83.50
61117;DHT22;47002;50.856;6.580;2022-12-11T15:20:24;0.20;83.50
61117;DHT22;47002;50.856;6.580;2022-12-11T15:22:50;0.20;83.60
61117;DHT22;47002;50.856;6.580;2022-12-11T15:25:21;0.10;83.70
61117;DHT22;47002;50.856;6.580;2022-12-11T15:27:50;0.00;83.90
61117;DHT22;47002;50.856;6.580;2022-12-11T15:30:25;-0.10;84.00
61117;DHT22;47002;50.856;6.580;2022-12-11T15:33:02;-0.20;84.30
61117;DHT22;47002;50.856;6.580;2022-12-11T15:35:28;-0.30;84.50
61117;DHT22;47002;50.856;6.580;2022-12-11T15:37:56;-0.30;84.70
61117;DHT22;47002;50.856;6.580;2022-12-11T15:40:22;-0.40;84.90
61117;DHT22;47002;50.856;6.580;2022-12-11T15:42:49;-0.40;85.10
61117;DHT22;47002;50.856;6.580;2022-12-11T15:45:17;-0.50;85.40